Saturday, May 26, 2018, 12:14 PM GMT
Back to Local

CYSC, Sherbrooke, Que.

Location: , , Canada Lat: 45.4
Local Time: 12:14 PM GMT (12:14 GMT) Lon: -71.883
Time Zone: GMT Elev: 557 ft

Show me the last for .
Show Coded

Time T Td Feel RH Dir Speed Gust Alt SLP Vis Weather Sky Remarks
2018-05-26 12:00 64 59 - 82 260° 8 - 29.72 29.72 9 OVC016 None
2018-05-26 11:39 64 59 - 82 270° 8 - 29.72 29.72 9 BKN018 OVC044 Pressure rising rapidly
2018-05-26 11:00 64 59 - 82 240° 5 - 29.69 29.69 9 FEW120 None
2018-05-26 10:34 63 59 - 88 210° 3 - 29.69 29.69 9 SCT017 BKN065 BKN075 BKN250 None
2018-05-26 10:00 63 59 - 88 Variable 2 - 29.69 29.69 9 OVC019 None
2018-05-26 09:35 61 59 - 93 220° 5 - 29.69 29.69 9 BKN019 BKN100 BKN250 None
2018-05-26 09:21 61 59 - 93 230° 3 - 29.67 29.67 9 SCT019 BKN100 BKN240 None
2018-05-26 09:18 61 59 - 93 220° 3 - 29.68 29.67 9 BKN019 BKN100 BKN240 None
2018-05-26 09:04 61 59 - 93 210° 6 - 29.67 29.67 9 SCT019 BKN085 BKN240 None
2018-05-26 09:00 63 59 - 88 230° 5 - 29.67 29.67 9 BKN019 OVC085 None
2018-05-26 08:58 63 59 - 88 250° 5 - 29.67 29.67 9 BKN019 OVC085 Pressure rising rapidly
2018-05-26 08:22 63 59 - 88 200° 3 - 29.66 29.65 9 BKN095 None
2018-05-26 08:00 63 59 - 88 250° 6 - 29.65 29.65 9 -RA FEW060 None
2018-05-26 07:49 64 59 - 82 250° 7 - 29.65 29.65 9 -RA SCT055 SCT100 SCT140 None
2018-05-26 07:04 64 59 - 82 250° 7 - 29.65 29.65 9 FEW055 SCT100 SCT120 SCT250 None
2018-05-26 07:00 64 59 - 82 250° 7 - 29.65 29.65 9 -RA FEW060 SCT120 SCT250 None
2018-05-26 06:31 64 59 - 82 260° 9 - 29.65 29.65 9 -RA FEW022 SCT028 BKN110 None
2018-05-26 06:17 66 59 - 77 260° 13 - 29.65 29.65 9 SCT022 BKN028 OVC100 None
2018-05-26 06:00 66 59 - 77 260° 10 17 29.66 29.66 9 OVC024 None
2018-05-26 05:41 66 59 - 77 250° 9 - 29.66 29.65 9 BKN024 OVC029 None
2018-05-26 05:00 64 57 - 77 230° 5 - 29.66 29.66 9 OVC029 None
2018-05-26 04:00 66 57 - 72 230° 9 - 29.67 29.67 9 SCT080 BKN140 None
2018-05-26 03:00 68 57 - 68 250° 10 20 29.68 29.68 9 FEW031 None
2018-05-26 02:00 70 59 - 68 260° 13 24 29.68 29.68 9 FEW170 SCT250 None
2018-05-26 01:00 72 55 76 56 250° 12 24 29.66 29.66 9 FEW043 None
2018-05-26 00:00 72 57 76 60 240° 14 22 29.66 29.66 9 FEW240 None
2018-05-25 23:00 73 57 77 56 250° 16 25 29.65 29.65 9 FEW043 SCT240 None
2018-05-25 22:00 75 59 78 57 260° 14 28 29.65 29.65 9 FEW043 None
2018-05-25 21:46 75 59 78 57 260° 25 32 29.64 29.65 9 FEW240 None
2018-05-25 21:00 79 59 80 50 260° 14 23 29.64 29.65 9 FEW049 SCT240 None
2018-05-25 20:00 79 59 80 50 240° 24 31 29.65 29.65 9 CLR None
2018-05-25 19:00 77 57 79 50 250° 21 31 29.67 29.67 9 FEW049 None
2018-05-25 18:00 79 57 80 47 270° 24 36 29.68 29.69 9 FEW055 None
2018-05-25 17:58 79 59 80 50 280° 28 33 29.68 29.68 9 FEW055 None
2018-05-25 17:00 81 55 81 42 250° 16 29 29.68 29.69 9 CLR None
2018-05-25 16:00 79 55 79 44 260° 16 30 29.71 29.71 9 FEW250 None
2018-05-25 15:00 75 52 77 44 240° 14 24 29.72 29.73 9 FEW250 None
2018-05-25 14:00 73 52 76 46 260° 17 24 29.75 29.75 9 CLR None
2018-05-25 13:00 70 50 - 49 260° 16 22 29.77 29.77 9 FEW250 None

Support USWX by starting your Amazon purchase here.